This is the latest recevied weather packets stored in our database for station/object KO5MO-10. If no packets are shown the sender has not sent any weather packets the latest 1 day(s).
| Time | Temp. | Humidity | Pressure | Rain* | Wind** | Luminosity | Snow |
|---|---|---|---|---|---|---|---|
| 1778092926 | 30.56° C | 19% | 1012 hPa | - | - | - | - |
| 1778092026 | 30.56° C | 20% | 1012.2 hPa | - | - | - | - |
| 1778088425 | 28.89° C | 21% | 1012.6 hPa | - | - | - | - |
| 1778087525 | 28.89° C | 21% | 1012.6 hPa | - | - | - | - |
| 1778082124 | 27.22° C | 24% | 1012.4 hPa | - | - | - | - |
| 1778078523 | 22.78° C | 31% | 1012.5 hPa | - | - | - | - |
| 1778077623 | 22.22° C | 30% | 1012.3 hPa | - | - | - | - |
| 1778073122 | 12.22° C | 50% | 1011.4 hPa | - | - | - | - |
| 1778072222 | 11.67° C | 53% | 1011.3 hPa | - | - | - | - |
| 1778068621 | 12.22° C | 46% | 1010.7 hPa | - | - | - | - |
| 1778067721 | 12.78° C | 47% | 1010.7 hPa | - | - | - | - |
| 1778065020 | 12.22° C | 49% | 1010.5 hPa | - | - | - | - |
| 1778064120 | 12.22° C | 48% | 1010.4 hPa | - | - | - | - |
| 1778063220 | 12.78° C | 47% | 1010.3 hPa | - | - | - | - |
| 1778062320 | 12.78° C | 45% | 1010.1 hPa | - | - | - | - |
| 1778059619 | 13.33° C | 44% | 1010 hPa | - | - | - | - |
| 1778058719 | 13.33° C | 44% | 1009.9 hPa | - | - | - | - |
| 1778057819 | 13.89° C | 42% | 1009.7 hPa | - | - | - | - |
| 1778055118 | 15.56° C | 40% | 1009.7 hPa | - | - | - | - |
| 1778054218 | 16.11° C | 38% | 1009.6 hPa | - | - | - | - |
| 1778053318 | 16.67° C | 37% | 1009.7 hPa | - | - | - | - |
| 1778052418 | 16.67° C | 37% | 1009.6 hPa | - | - | - | - |
| 1778047016 | 18.33° C | 33% | 1009.2 hPa | - | - | - | - |
| 1778046116 | 18.89° C | 33% | 1009.1 hPa | - | - | - | - |
| 1778045216 | 18.89° C | 32% | 1009.1 hPa | - | - | - | - |
* Rain since midnight (hover to see other rain measurements)
** Current wind speed in m/s (hover to see current wind gust speed)